createdAt,value
2018-04-11T00:00:48.362Z,94716.86
2018-04-11T00:03:14.342Z,94709.95
2018-04-11T00:05:40.324Z,94698.33
2018-04-11T00:08:06.330Z,94692.40
2018-04-11T00:10:32.281Z,94687.46
2018-04-11T00:12:58.259Z,94687.86
2018-04-11T00:15:24.238Z,94689.64
2018-04-11T00:17:50.253Z,94688.84
2018-04-11T00:20:16.237Z,94690.22
2018-04-11T00:22:42.190Z,94690.22
2018-04-11T00:25:08.176Z,94678.78
2018-04-11T00:27:34.161Z,94679.56
2018-04-11T00:30:00.138Z,94678.41
2018-04-11T00:32:26.141Z,94681.17
2018-04-11T00:34:52.097Z,94675.25
2018-04-11T00:37:18.073Z,94668.75
2018-04-11T00:39:44.089Z,94658.06
2018-04-11T00:42:10.042Z,94665.57
2018-04-11T00:44:36.019Z,94663.98
2018-04-11T00:47:01.991Z,94660.25
2018-04-11T00:49:28.023Z,94661.43
2018-04-11T00:51:54.007Z,94663.58
2018-04-11T00:54:19.978Z,94664.19
2018-04-11T00:56:45.955Z,94663.98
2018-04-11T00:59:11.971Z,94666.74
2018-04-11T01:01:38.035Z,94661.05
2018-04-11T01:04:04.012Z,94657.48
2018-04-11T01:06:29.995Z,94662.43
2018-04-11T01:08:55.977Z,94661.62
2018-04-11T01:11:21.989Z,94663.98
2018-04-11T01:13:47.977Z,94664.38
2018-04-11T01:16:13.971Z,94664.96
2018-04-11T01:18:39.956Z,94658.06
2018-04-11T01:21:05.956Z,94658.06
2018-04-11T01:23:31.936Z,94662.81
2018-04-11T01:25:57.949Z,94661.43
2018-04-11T01:28:23.901Z,94664.19
2018-04-11T01:30:49.875Z,94653.55
2018-04-11T01:33:15.861Z,94658.47
2018-04-11T01:35:41.840Z,94658.67
2018-04-11T01:38:07.852Z,94658.47
2018-04-11T01:40:33.829Z,94655.52
2018-04-11T01:42:59.813Z,94656.31
2018-04-11T01:45:25.839Z,94662.81
2018-04-11T01:47:51.785Z,94669.70
2018-04-11T01:50:17.797Z,94675.80
2018-04-11T01:52:43.777Z,94672.09
2018-04-11T01:55:09.756Z,94664.98
2018-04-11T01:57:35.728Z,94665.99
2018-04-11T02:00:01.747Z,94669.97
2018-04-11T02:02:27.690Z,94663.89
2018-04-11T02:04:53.668Z,94664.88
2018-04-11T02:07:19.684Z,94660.91
2018-04-11T02:09:45.642Z,94664.45
2018-04-11T02:12:11.630Z,94670.95
2018-04-11T02:14:37.640Z,94677.84
2018-04-11T02:17:03.612Z,94673.30
2018-04-11T02:19:29.621Z,94672.53
2018-04-11T02:21:55.599Z,94676.47
2018-04-11T02:24:21.589Z,94676.67
2018-04-11T02:26:47.588Z,94675.30
2018-04-11T02:29:13.571Z,94668.57
2018-04-11T02:31:39.550Z,94677.25
2018-04-11T02:34:05.666Z,94670.35
2018-04-11T02:36:31.612Z,94673.91
2018-04-11T02:38:57.605Z,94665.81
2018-04-11T02:41:23.620Z,94667.02
2018-04-11T02:43:49.590Z,94671.16
2018-04-11T02:46:15.598Z,94670.95
2018-04-11T02:48:41.589Z,94671.73
2018-04-11T02:51:07.540Z,94675.48
2018-04-11T02:53:33.544Z,94664.05
2018-04-11T02:55:59.496Z,94656.38
2018-04-11T02:58:25.478Z,94660.52
2018-04-11T03:00:51.458Z,94657.76
2018-04-11T03:03:17.471Z,94648.67
2018-04-11T03:05:43.419Z,94658.52
2018-04-11T03:08:09.405Z,94655.34
2018-04-11T03:10:35.399Z,94654.17
2018-04-11T03:13:01.379Z,94650.84
2018-04-11T03:15:27.377Z,94647.07
2018-04-11T03:17:53.384Z,94648.08
2018-04-11T03:20:19.407Z,94647.85
2018-04-11T03:22:45.381Z,94653.38
2018-04-11T03:25:11.356Z,94644.29
2018-04-11T03:27:37.335Z,94641.16
2018-04-11T03:30:03.283Z,94646.07
2018-04-11T03:32:29.263Z,94657.31
2018-04-11T03:34:55.244Z,94649.81
2018-04-11T03:37:21.229Z,94648.83
2018-04-11T03:39:47.245Z,94641.36
2018-04-11T03:42:13.234Z,94641.36
2018-04-11T03:44:39.266Z,94640.95
2018-04-11T03:47:05.293Z,94647.85
2018-04-11T03:49:31.273Z,94653.77
2018-04-11T03:51:57.260Z,94646.88
2018-04-11T03:54:23.244Z,94653.97
2018-04-11T03:56:49.253Z,94641.94
2018-04-11T03:59:15.204Z,94639.98
2018-04-11T04:01:41.271Z,94644.89
2018-04-11T04:04:07.166Z,94651.39
2018-04-11T04:06:34.204Z,94651.97
2018-04-11T04:09:00.227Z,94646.86
2018-04-11T04:11:26.231Z,94653.75
2018-04-11T04:13:52.251Z,94663.00
2018-04-11T04:16:18.199Z,94665.57
2018-04-11T04:18:44.220Z,94662.18
2018-04-11T04:21:10.200Z,94656.30
2018-04-11T04:23:36.258Z,94660.43
2018-04-11T04:26:02.343Z,94669.69
2018-04-11T04:28:28.295Z,94665.95
2018-04-11T04:30:54.332Z,94670.66
2018-04-11T04:33:20.316Z,94675.80
2018-04-11T04:35:46.301Z,94675.63
2018-04-11T04:38:12.313Z,94678.96
2018-04-11T04:40:38.351Z,94680.14
2018-04-11T04:43:04.348Z,94687.84
2018-04-11T04:45:30.337Z,94686.45
2018-04-11T04:47:56.335Z,94691.02
2018-04-11T04:50:22.350Z,94687.48
2018-04-11T04:52:48.341Z,94687.50
2018-04-11T04:55:14.345Z,94687.93
2018-04-11T04:57:40.335Z,94688.11
2018-04-11T05:00:06.362Z,94690.67
2018-04-11T05:02:32.373Z,94697.79
2018-04-11T05:04:58.379Z,94699.94
2018-04-11T05:07:24.580Z,94699.56
2018-04-11T05:09:51.535Z,94702.93
2018-04-11T05:12:18.502Z,94700.17
2018-04-11T05:14:44.560Z,94704.31
2018-04-11T05:17:10.534Z,94708.62
2018-04-11T05:19:36.668Z,94711.98
2018-04-11T05:22:02.686Z,94711.81
2018-04-11T05:24:28.628Z,94705.31
2018-04-11T05:26:54.625Z,94705.31
2018-04-11T05:29:20.607Z,94702.34
2018-04-11T05:31:46.663Z,94706.89
2018-04-11T05:34:12.650Z,94717.73
2018-04-11T05:36:38.635Z,94710.43
2018-04-11T05:39:04.663Z,94716.75
2018-04-11T05:41:30.685Z,94717.73
2018-04-11T05:43:56.717Z,94713.59
2018-04-11T05:46:22.745Z,94715.38
2018-04-11T05:48:48.723Z,94702.55
2018-04-11T05:51:14.735Z,94708.45
2018-04-11T05:53:40.778Z,94706.46
2018-04-11T05:56:06.783Z,94703.91
2018-04-11T05:58:32.732Z,94707.84
2018-04-11T06:00:58.764Z,94714.38
2018-04-11T06:03:24.772Z,94719.89
2018-04-11T06:05:50.747Z,94718.69
2018-04-11T06:08:16.746Z,94712.59
2018-04-11T06:10:42.782Z,94701.95
2018-04-11T06:13:08.783Z,94705.29
2018-04-11T06:15:34.841Z,94712.77
2018-04-11T06:18:00.790Z,94722.62
2018-04-11T06:20:26.813Z,94725.97
2018-04-11T06:22:52.947Z,94730.64
2018-04-11T06:25:18.814Z,94731.22
2018-04-11T06:27:44.845Z,94731.97
2018-04-11T06:30:10.831Z,94728.97
2018-04-11T06:32:36.821Z,94745.09
2018-04-11T06:35:02.834Z,94738.20
2018-04-11T06:37:28.822Z,94736.05
2018-04-11T06:39:54.803Z,94736.22
2018-04-11T06:42:20.782Z,94742.52
2018-04-11T06:44:46.813Z,94740.91
2018-04-11T06:47:15.031Z,94742.49
2018-04-11T06:49:41.045Z,94741.72
2018-04-11T06:52:07.030Z,94747.23
2018-04-11T06:54:33.005Z,94761.03
2018-04-11T06:56:58.956Z,94754.70
2018-04-11T06:59:25.051Z,94752.55
2018-04-11T07:01:50.980Z,94748.19
2018-04-11T07:04:16.926Z,94746.59
2018-04-11T07:06:42.903Z,94746.19
2018-04-11T07:09:08.927Z,94749.52
2018-04-11T07:11:34.920Z,94749.55
2018-04-11T07:14:00.896Z,94744.25
2018-04-11T07:16:26.900Z,94745.81
2018-04-11T07:18:52.883Z,94747.02
2018-04-11T07:21:18.863Z,94737.93
2018-04-11T07:23:44.876Z,94729.85
2018-04-11T07:26:10.829Z,94737.55
2018-04-11T07:28:36.828Z,94734.22
2018-04-11T07:31:02.835Z,94730.25
2018-04-11T07:33:28.785Z,94732.44
2018-04-11T07:35:54.811Z,94731.45
2018-04-11T07:38:20.774Z,94732.27
2018-04-11T07:40:46.752Z,94732.63
2018-04-11T07:43:12.762Z,94724.03
2018-04-11T07:45:38.712Z,94718.75
2018-04-11T07:48:04.700Z,94716.82
2018-04-11T07:50:30.712Z,94713.92
2018-04-11T07:52:56.663Z,94713.86
2018-04-11T07:55:22.680Z,94713.25
2018-04-11T07:57:48.656Z,94713.23
2018-04-11T08:00:14.665Z,94714.86
2018-04-11T08:02:40.614Z,94716.15
2018-04-11T08:05:06.582Z,94715.91
2018-04-11T08:07:32.571Z,94724.74
2018-04-11T08:09:58.571Z,94730.24
2018-04-11T08:12:24.597Z,94729.03
2018-04-11T08:14:50.596Z,94723.72
2018-04-11T08:17:16.515Z,94716.59
2018-04-11T08:19:42.501Z,94711.68
2018-04-11T08:22:08.514Z,94710.30
2018-04-11T08:24:34.480Z,94717.77
2018-04-11T08:27:00.495Z,94716.39
2018-04-11T08:29:26.449Z,94722.89
2018-04-11T08:31:52.420Z,94724.08
2018-04-11T08:34:18.432Z,94716.77
2018-04-11T08:36:44.379Z,94726.03
2018-04-11T08:39:10.365Z,94734.29
2018-04-11T08:41:36.361Z,94733.31
2018-04-11T08:44:02.352Z,94739.78
2018-04-11T08:46:28.363Z,94735.67
2018-04-11T08:48:54.381Z,94730.73
2018-04-11T08:51:20.393Z,94740.20
2018-04-11T08:53:46.374Z,94733.31
2018-04-11T08:56:12.391Z,94730.75
2018-04-11T08:58:38.406Z,94731.17
2018-04-11T09:01:04.386Z,94731.77
2018-04-11T09:03:30.335Z,94724.50
2018-04-11T09:05:56.374Z,94719.18
2018-04-11T09:08:22.330Z,94705.98
2018-04-11T09:10:48.318Z,94694.77
2018-04-11T09:13:14.311Z,94694.94
2018-04-11T09:15:40.338Z,94689.02
2018-04-11T09:18:06.327Z,94686.48
2018-04-11T09:20:32.348Z,94690.42
2018-04-11T09:22:58.358Z,94683.92
2018-04-11T09:25:24.338Z,94681.56
2018-04-11T09:27:50.437Z,94680.01
2018-04-11T09:30:16.390Z,94675.87
2018-04-11T09:32:42.339Z,94673.86
2018-04-11T09:35:08.382Z,94674.06
2018-04-11T09:37:34.332Z,94678.20
2018-04-11T09:40:00.341Z,94674.66
2018-04-11T09:42:26.339Z,94669.72
2018-04-11T09:44:52.312Z,94670.73
2018-04-11T09:47:18.361Z,94668.73
2018-04-11T09:49:44.348Z,94656.34
2018-04-11T09:52:10.453Z,94658.34
2018-04-11T09:54:36.442Z,94663.28
2018-04-11T09:57:02.528Z,94661.91
2018-04-11T09:59:28.537Z,94657.38
2018-04-11T10:01:54.486Z,94651.86
2018-04-11T10:04:20.505Z,94644.19
2018-04-11T10:06:46.517Z,94653.64
2018-04-11T10:09:12.459Z,94647.14
2018-04-11T10:11:38.478Z,94643.41
2018-04-11T10:14:04.436Z,94646.97
2018-04-11T10:16:30.451Z,94633.94
2018-04-11T10:18:56.407Z,94631.56
2018-04-11T10:21:22.420Z,94622.53
2018-04-11T10:23:48.402Z,94620.73
2018-04-11T10:26:14.465Z,94611.06
2018-04-11T10:28:40.412Z,94611.06
2018-04-11T10:31:06.363Z,94595.48
2018-04-11T10:33:32.344Z,94591.94
2018-04-11T10:35:58.328Z,94581.30
2018-04-11T10:38:24.308Z,94581.30
2018-04-11T10:40:50.307Z,94585.45
2018-04-11T10:43:16.289Z,94584.25
2018-04-11T10:45:42.298Z,94580.92
2018-04-11T10:48:08.330Z,94576.81
2018-04-11T10:50:34.336Z,94574.28
2018-04-11T10:53:00.312Z,94569.75
2018-04-11T10:55:26.267Z,94569.17
2018-04-11T10:57:52.288Z,94567.01
2018-04-11T11:00:18.239Z,94561.91
2018-04-11T11:02:44.273Z,94560.70
2018-04-11T11:05:10.276Z,94560.70
2018-04-11T11:07:36.273Z,94554.02
2018-04-11T11:10:02.228Z,94557.36
2018-04-11T11:12:28.209Z,94553.00
2018-04-11T11:14:54.220Z,94554.76
2018-04-11T11:17:20.200Z,94558.52
2018-04-11T11:19:46.176Z,94555.73
2018-04-11T11:22:12.159Z,94556.55
2018-04-11T11:24:38.173Z,94554.76
2018-04-11T11:27:04.155Z,94552.61
2018-04-11T11:29:30.144Z,94553.98
2018-04-11T11:31:56.162Z,94551.81
2018-04-11T11:34:22.127Z,94551.81
2018-04-11T11:36:48.113Z,94549.64
2018-04-11T11:39:14.128Z,94543.19
2018-04-11T11:41:40.073Z,94534.33
2018-04-11T11:44:06.077Z,94537.88
2018-04-11T11:46:32.035Z,94535.13
2018-04-11T11:48:58.044Z,94532.18
2018-04-11T11:51:24.023Z,94530.23
2018-04-11T11:53:50.009Z,94527.27
2018-04-11T11:56:16.022Z,94523.91
2018-04-11T11:58:42.007Z,94516.05
2018-04-11T12:01:07.955Z,94519.63
2018-04-11T12:03:33.933Z,94515.11
2018-04-11T12:05:59.955Z,94508.02
2018-04-11T12:08:25.978Z,94513.35
2018-04-11T12:10:51.924Z,94509.62
2018-04-11T12:13:17.914Z,94509.05
2018-04-11T12:15:43.959Z,94510.02
2018-04-11T12:18:09.912Z,94501.94
2018-04-11T12:20:35.903Z,94498.00
2018-04-11T12:23:01.919Z,94508.26
2018-04-11T12:25:27.945Z,94505.50
2018-04-11T12:27:53.918Z,94506.09
2018-04-11T12:30:19.963Z,94495.84
2018-04-11T12:32:45.941Z,94506.33
2018-04-11T12:35:11.957Z,94499.59
2018-04-11T12:37:37.931Z,94490.92
2018-04-11T12:40:03.909Z,94488.38
2018-04-11T12:42:29.893Z,94490.72
2018-04-11T12:44:55.880Z,94489.74
2018-04-11T12:47:21.874Z,94481.63
2018-04-11T12:49:47.860Z,94480.86
2018-04-11T12:52:13.847Z,94475.16
2018-04-11T12:54:39.876Z,94468.84
2018-04-11T12:57:05.865Z,94464.51
2018-04-11T12:59:31.881Z,94460.95
2018-04-11T13:01:57.840Z,94455.03
2018-04-11T13:04:23.830Z,94454.63
2018-04-11T13:06:49.852Z,94455.63
2018-04-11T13:09:15.865Z,94449.31
2018-04-11T13:11:41.891Z,94452.22
2018-04-11T13:14:07.903Z,94446.92
2018-04-11T13:16:33.885Z,94444.33
2018-04-11T13:19:00.221Z,94438.38
2018-04-11T13:21:26.272Z,94437.81
2018-04-11T13:23:52.256Z,94438.21
2018-04-11T13:26:18.273Z,94441.55
2018-04-11T13:28:44.270Z,94430.11
2018-04-11T13:31:10.265Z,94433.67
2018-04-11T13:33:36.263Z,94429.31
2018-04-11T13:36:02.253Z,94431.91
2018-04-11T13:38:28.269Z,94424.03
2018-04-11T13:40:54.276Z,94424.20
2018-04-11T13:43:20.285Z,94428.36
2018-04-11T13:45:46.232Z,94421.29
2018-04-11T13:48:12.215Z,94416.34
2018-04-11T13:50:38.229Z,94409.66
2018-04-11T13:53:04.186Z,94409.05
2018-04-11T13:55:30.204Z,94402.16
2018-04-11T13:57:56.191Z,94410.30
2018-04-11T14:00:22.236Z,94413.00
2018-04-11T14:02:48.182Z,94420.09
2018-04-11T14:05:14.157Z,94417.94
2018-04-11T14:07:40.149Z,94415.17
2018-04-11T14:10:06.172Z,94415.59
2018-04-11T14:12:32.156Z,94412.60
2018-04-11T14:14:58.136Z,94423.07
2018-04-11T14:17:24.142Z,94420.09
2018-04-11T14:19:50.187Z,94422.48
2018-04-11T14:22:16.104Z,94418.92
2018-04-11T14:24:42.117Z,94417.53
2018-04-11T14:27:08.112Z,94420.86
2018-04-11T14:29:34.108Z,94421.81
2018-04-11T14:32:00.095Z,94417.26
2018-04-11T14:34:26.096Z,94426.33
2018-04-11T14:36:52.109Z,94419.03
2018-04-11T14:39:18.122Z,94413.89
2018-04-11T14:41:44.190Z,94413.70
2018-04-11T14:44:10.178Z,94419.80
2018-04-11T14:46:36.159Z,94409.73
2018-04-11T14:49:02.182Z,94418.83
2018-04-11T14:51:28.199Z,94418.20
2018-04-11T14:53:54.157Z,94414.48
2018-04-11T14:56:20.151Z,94416.28
2018-04-11T14:58:46.140Z,94415.30
2018-04-11T15:01:12.211Z,94416.68
2018-04-11T15:03:38.184Z,94416.87
2018-04-11T15:06:04.198Z,94417.26
2018-04-11T15:08:30.230Z,94420.98
2018-04-11T15:10:56.527Z,94427.89
2018-04-11T15:13:22.542Z,94419.61
2018-04-11T15:15:48.555Z,94423.77
2018-04-11T15:18:14.573Z,94426.53
2018-04-11T15:20:40.997Z,94433.83
2018-04-11T15:23:07.184Z,94432.67
2018-04-11T15:25:33.168Z,94432.67
2018-04-11T15:27:59.152Z,94426.17
2018-04-11T15:30:25.143Z,94433.25
2018-04-11T15:32:51.404Z,94431.88
2018-04-11T15:35:17.381Z,94423.61
2018-04-11T15:37:43.340Z,94425.01
2018-04-11T15:40:09.464Z,94426.58
2018-04-11T15:42:35.474Z,94429.17
2018-04-11T15:45:01.428Z,94430.77
2018-04-11T15:47:27.410Z,94434.70
2018-04-11T15:49:53.427Z,94434.92
2018-04-11T15:52:19.426Z,94431.95
2018-04-11T15:54:45.378Z,94435.52
2018-04-11T15:57:11.408Z,94429.63
2018-04-11T15:59:37.363Z,94423.27
2018-04-11T16:02:03.371Z,94427.22
2018-04-11T16:04:29.398Z,94426.42
2018-04-11T16:06:55.388Z,94428.39
2018-04-11T16:09:21.445Z,94432.94
2018-04-11T16:11:47.436Z,94428.61
2018-04-11T16:14:13.443Z,94432.39
2018-04-11T16:16:39.396Z,94430.77
2018-04-11T16:19:05.452Z,94430.16
2018-04-11T16:21:31.429Z,94433.72
2018-04-11T16:23:57.498Z,94427.60
2018-04-11T16:26:23.563Z,94431.91
2018-04-11T16:28:49.601Z,94429.73
2018-04-11T16:31:15.661Z,94429.72
2018-04-11T16:33:41.976Z,94444.92
2018-04-11T16:36:08.011Z,94438.83
2018-04-11T16:38:33.995Z,94441.77
2018-04-11T16:40:59.963Z,94435.88
2018-04-11T16:43:25.977Z,94443.95
2018-04-11T16:45:51.957Z,94449.08
2018-04-11T16:48:17.939Z,94448.48
2018-04-11T16:50:43.924Z,94446.30
2018-04-11T16:53:09.916Z,94456.95
2018-04-11T16:55:36.041Z,94457.94
2018-04-11T16:58:02.081Z,94460.31
2018-04-11T17:00:28.108Z,94460.72
2018-04-11T17:02:54.060Z,94465.85
2018-04-11T17:05:20.047Z,94468.00
2018-04-11T17:07:46.160Z,94469.59
2018-04-11T17:10:12.148Z,94470.40
2018-04-11T17:12:38.165Z,94476.50
2018-04-11T17:15:04.627Z,94479.03
2018-04-11T17:17:30.624Z,94479.84
2018-04-11T17:19:56.577Z,94484.38
2018-04-11T17:22:22.879Z,94483.41
2018-04-11T17:24:48.856Z,94493.88
2018-04-11T17:27:14.843Z,94496.23
2018-04-11T17:29:40.828Z,94498.59
2018-04-11T17:32:06.812Z,94506.30
2018-04-11T17:34:32.836Z,94515.16
2018-04-11T17:36:58.820Z,94520.46
2018-04-11T17:39:24.782Z,94525.98
2018-04-11T17:41:51.314Z,94532.89
2018-04-11T17:44:17.332Z,94534.08
2018-04-11T17:46:43.349Z,94535.86
2018-04-11T17:49:09.343Z,94546.31
2018-04-11T17:51:35.375Z,94549.45
2018-04-11T17:54:01.343Z,94559.72
2018-04-11T17:56:27.356Z,94561.88
2018-04-11T17:58:53.663Z,94561.30
2018-04-11T18:01:19.641Z,94567.78
2018-04-11T18:03:46.171Z,94574.89
2018-04-11T18:06:12.192Z,94583.94
2018-04-11T18:08:38.859Z,94588.27
2018-04-11T18:11:04.845Z,94591.03
2018-04-11T18:13:30.815Z,94589.25
2018-04-11T18:15:56.845Z,94596.34
2018-04-11T18:18:22.816Z,94596.74
2018-04-11T18:20:48.803Z,94595.59
2018-04-11T18:23:14.840Z,94603.65
2018-04-11T18:25:40.921Z,94600.29
2018-04-11T18:28:10.713Z,94609.55
2018-04-11T18:30:36.958Z,94603.09
2018-04-11T18:33:02.987Z,94612.77
2018-04-11T18:35:29.092Z,94616.95
2018-04-11T18:37:55.118Z,94625.41
2018-04-11T18:40:21.117Z,94619.28
2018-04-11T18:42:47.153Z,94626.00
2018-04-11T18:45:13.173Z,94627.54
2018-04-11T18:47:39.325Z,94632.48
2018-04-11T18:50:05.403Z,94632.25
2018-04-11T18:52:31.423Z,94633.84
2018-04-11T18:54:57.463Z,94635.00
2018-04-11T18:57:23.488Z,94624.16
2018-04-11T18:59:49.649Z,94627.33
2018-04-11T19:02:15.634Z,94634.81
2018-04-11T19:04:41.664Z,94633.23
2018-04-11T19:07:07.655Z,94636.36
2018-04-11T19:09:33.678Z,94645.26
2018-04-11T19:11:59.700Z,94640.31
2018-04-11T19:14:25.675Z,94643.08
2018-04-11T19:16:51.683Z,94650.77
2018-04-11T19:19:17.717Z,94650.94
2018-04-11T19:21:43.684Z,94650.94
2018-04-11T19:24:09.672Z,94657.27
2018-04-11T19:26:35.654Z,94656.28
2018-04-11T19:29:01.679Z,94654.50
2018-04-11T19:31:27.678Z,94659.48
2018-04-11T19:33:53.872Z,94657.34
2018-04-11T19:36:19.855Z,94662.89
2018-04-11T19:38:45.859Z,94669.58
2018-04-11T19:41:11.883Z,94668.42
2018-04-11T19:43:37.829Z,94671.34
2018-04-11T19:46:03.808Z,94669.19
2018-04-11T19:48:29.799Z,94667.02
2018-04-11T19:50:55.817Z,94666.62
2018-04-11T19:53:21.819Z,94667.00
2018-04-11T19:55:47.802Z,94669.19
2018-04-11T19:58:13.774Z,94668.78
2018-04-11T20:00:39.795Z,94667.80
2018-04-11T20:03:05.789Z,94677.06
2018-04-11T20:05:31.772Z,94681.80
2018-04-11T20:07:57.785Z,94680.41
2018-04-11T20:10:23.743Z,94677.62
2018-04-11T20:12:49.736Z,94675.44
2018-04-11T20:15:15.831Z,94676.62
2018-04-11T20:17:41.815Z,94680.37
2018-04-11T20:20:07.802Z,94674.83
2018-04-11T20:22:33.822Z,94674.42
2018-04-11T20:24:59.875Z,94675.41
2018-04-11T20:27:25.862Z,94679.93
2018-04-11T20:29:51.892Z,94678.36
2018-04-11T20:32:17.919Z,94685.66
2018-04-11T20:34:43.984Z,94679.13
2018-04-11T20:37:09.997Z,94682.67
2018-04-11T20:39:35.944Z,94683.25
2018-04-11T20:42:02.071Z,94683.25
2018-04-11T20:44:28.047Z,94688.98
2018-04-11T20:46:54.059Z,94688.75
2018-04-11T20:49:20.049Z,94691.91
2018-04-11T20:51:46.053Z,94693.50
2018-04-11T20:54:12.090Z,94696.27
2018-04-11T20:56:38.040Z,94689.94
2018-04-11T20:59:04.018Z,94696.44
2018-04-11T21:01:30.004Z,94693.27
2018-04-11T21:03:55.994Z,94696.24
2018-04-11T21:06:21.989Z,94697.99
2018-04-11T21:08:47.969Z,94695.84
2018-04-11T21:11:13.960Z,94699.58
2018-04-11T21:13:40.007Z,94699.58
2018-04-11T21:16:06.002Z,94700.16
2018-04-11T21:18:31.939Z,94699.56
2018-04-11T21:20:57.930Z,94699.73
2018-04-11T21:23:23.916Z,94697.58
2018-04-11T21:25:49.899Z,94695.80
2018-04-11T21:28:15.913Z,94706.23
2018-04-11T21:30:41.922Z,94702.70
2018-04-11T21:33:07.908Z,94710.18
2018-04-11T21:35:33.899Z,94699.94
2018-04-11T21:37:59.886Z,94701.09
2018-04-11T21:40:25.866Z,94698.16
2018-04-11T21:42:51.898Z,94702.48
2018-04-11T21:45:17.914Z,94703.08
2018-04-11T21:47:43.847Z,94698.94
2018-04-11T21:50:09.850Z,94702.86
2018-04-11T21:52:35.832Z,94703.26
2018-04-11T21:55:01.811Z,94705.62
2018-04-11T21:57:27.819Z,94710.16
2018-04-11T21:59:53.804Z,94710.16
2018-04-11T22:02:19.819Z,94706.02
2018-04-11T22:04:45.951Z,94703.43
2018-04-11T22:07:11.942Z,94710.73
2018-04-11T22:09:37.962Z,94712.72
2018-04-11T22:12:03.913Z,94717.22
2018-04-11T22:14:29.890Z,94714.28
2018-04-11T22:16:55.871Z,94717.44
2018-04-11T22:19:21.848Z,94723.14
2018-04-11T22:21:47.842Z,94716.64
2018-04-11T22:24:13.821Z,94719.00
2018-04-11T22:26:39.835Z,94719.00
2018-04-11T22:29:05.848Z,94719.20
2018-04-11T22:31:31.796Z,94718.80
2018-04-11T22:33:57.782Z,94721.56
2018-04-11T22:36:23.849Z,94721.73
2018-04-11T22:38:49.743Z,94718.97
2018-04-11T22:41:15.719Z,94727.26
2018-04-11T22:43:41.739Z,94728.84
2018-04-11T22:46:07.761Z,94728.23
2018-04-11T22:48:33.748Z,94733.39
2018-04-11T22:50:59.758Z,94732.00
2018-04-11T22:53:25.713Z,94729.04
2018-04-11T22:55:51.774Z,94723.32
2018-04-11T22:58:17.723Z,94721.54
2018-04-11T23:00:43.736Z,94724.30
2018-04-11T23:03:09.714Z,94726.08
2018-04-11T23:05:35.693Z,94723.09
2018-04-11T23:08:01.683Z,94724.47
2018-04-11T23:10:27.662Z,94724.08
2018-04-11T23:12:53.706Z,94724.08
2018-04-11T23:15:19.685Z,94729.80
2018-04-11T23:17:45.698Z,94727.44
2018-04-11T23:20:11.660Z,94723.67
2018-04-11T23:22:37.643Z,94723.67
2018-04-11T23:25:03.671Z,94722.50
2018-04-11T23:27:29.655Z,94723.88
2018-04-11T23:29:55.664Z,94720.31
2018-04-11T23:32:21.649Z,94724.28
2018-04-11T23:34:47.631Z,94717.75
2018-04-11T23:37:13.612Z,94718.53
2018-04-11T23:39:39.591Z,94717.15
2018-04-11T23:42:05.577Z,94722.27
2018-04-11T23:44:31.559Z,94720.31
2018-04-11T23:46:57.546Z,94720.89
2018-04-11T23:49:23.527Z,94717.75
2018-04-11T23:51:49.564Z,94721.50
2018-04-11T23:54:15.560Z,94719.31
2018-04-11T23:56:41.542Z,94723.28
2018-04-11T23:59:07.533Z,94718.33
